Time;durP1;ratioP1;P1;durP2;ratioP2;P2;SDS_P1;SDS_P2;PMS_P1;PMS_P2;Temp;Humidity;BMP_temperature;BMP_pressure;BME280_temperature;BME280_humidity;BME280_pressure;Samples;Min_cycle;Max_cycle;Signal;HPM_P1;HPM_P2
2024/01/20 00:02:12;;;;;;;19.13;12.10;;;;;;;;;;4976065;28;20055;-76
2024/01/20 00:04:39;;;;;;;21.33;12.57;;;;;;;;;;4975641;28;20484;-76
2024/01/20 00:07:07;;;;;;;19.35;12.70;;;;;;;;;;4974523;28;20047;-76
2024/01/20 00:09:34;;;;;;;20.90;11.95;;;;;;;;;;4956848;28;20062;-76
2024/01/20 00:12:01;;;;;;;20.67;12.50;;;;;;;;;;4956455;28;20059;-76
2024/01/20 00:14:28;;;;;;;17.27;10.90;;;;;;;;;;4956053;29;20055;-76
2024/01/20 00:16:55;;;;;;;17.88;11.13;;;;;;;;;;4961102;28;20066;-76
2024/01/20 00:19:22;;;;;;;18.10;10.65;;;;;;;;;;4985953;28;20512;-77
2024/01/20 00:21:49;;;;;;;17.77;10.38;;;;;;;;;;4991419;28;20062;-76
2024/01/20 00:24:17;;;;;;;16.38;10.48;;;;;;;;;;4974815;28;20134;-77
2024/01/20 00:26:44;;;;;;;17.35;10.63;;;;;;;;;;4974906;28;20066;-75
2024/01/20 00:29:11;;;;;;;18.08;10.40;;;;;;;;;;4975187;28;20074;-76
2024/01/20 00:31:37;;;;;;;18.00;10.15;;;;;;;;;;4975517;28;20055;-76
2024/01/20 00:34:04;;;;;;;17.75;10.23;;;;;;;;;;4975381;28;20521;-75
2024/01/20 00:36:31;;;;;;;16.75;8.70;;;;;;;;;;4973604;28;20065;-76
2024/01/20 00:38:58;;;;;;;19.25;10.25;;;;;;;;;;4960693;28;20054;-76
2024/01/20 00:41:26;;;;;;;17.13;9.10;;;;;;;;;;4975235;28;20059;-76
2024/01/20 00:43:53;;;;;;;17.35;9.23;;;;;;;;;;4975047;28;20054;-76
2024/01/20 00:46:20;;;;;;;15.82;9.80;;;;;;;;;;4974992;28;20480;-75
2024/01/20 00:48:46;;;;;;;13.68;8.75;;;;;;;;;;4956231;28;20133;-77
2024/01/20 00:51:13;;;;;;;14.40;8.88;;;;;;;;;;4955481;29;20051;-76
2024/01/20 00:53:40;;;;;;;15.13;8.65;;;;;;;;;;4971280;28;20061;-76
2024/01/20 00:56:07;;;;;;;15.48;8.70;;;;;;;;;;4974467;28;20054;-76
2024/01/20 00:58:35;;;;;;;13.32;9.07;;;;;;;;;;4975085;28;20143;-76
2024/01/20 01:01:01;;;;;;;13.65;8.63;;;;;;;;;;4974838;28;20507;-76
2024/01/20 01:03:28;;;;;;;14.50;8.05;;;;;;;;;;4970777;28;20051;-75
2024/01/20 01:05:55;;;;;;;14.00;8.43;;;;;;;;;;4955295;28;20047;-76
2024/01/20 01:08:22;;;;;;;14.50;8.88;;;;;;;;;;4960760;28;20070;-76
2024/01/20 01:10:48;;;;;;;14.30;8.77;;;;;;;;;;4955210;28;20066;-77
2024/01/20 01:13:15;;;;;;;13.50;8.50;;;;;;;;;;4955006;28;20421;-76
2024/01/20 01:15:44;;;;;;;14.13;8.70;;;;;;;;;;4959737;28;20047;-76
2024/01/20 01:18:10;;;;;;;14.23;8.35;;;;;;;;;;4974255;28;20057;-76
2024/01/20 01:20:37;;;;;;;16.10;8.43;;;;;;;;;;4974003;28;20050;-76
2024/01/20 01:23:04;;;;;;;18.23;8.25;;;;;;;;;;4954587;29;20051;-76
2024/01/20 01:25:31;;;;;;;15.85;7.95;;;;;;;;;;4954943;28;20054;-76
2024/01/20 01:27:57;;;;;;;12.15;7.93;;;;;;;;;;4954919;29;20055;-76
2024/01/20 01:30:24;;;;;;;14.30;8.63;;;;;;;;;;4954832;29;20169;-76
2024/01/20 01:32:52;;;;;;;13.98;8.35;;;;;;;;;;4954122;29;20062;-76
2024/01/20 01:35:19;;;;;;;11.50;8.10;;;;;;;;;;4954285;28;20051;-76
2024/01/20 01:37:46;;;;;;;14.85;8.35;;;;;;;;;;4954170;29;21826;-76
2024/01/20 01:40:14;;;;;;;15.20;8.88;;;;;;;;;;4954562;28;20062;-76
2024/01/20 01:42:40;;;;;;;15.38;9.02;;;;;;;;;;4954455;29;20489;-76
2024/01/20 01:45:07;;;;;;;15.45;8.93;;;;;;;;;;4954303;29;20051;-76
2024/01/20 01:47:34;;;;;;;12.88;8.30;;;;;;;;;;4954719;29;20065;-76
2024/01/20 01:50:02;;;;;;;15.48;8.90;;;;;;;;;;4954515;28;20055;-76
2024/01/20 01:52:31;;;;;;;16.58;8.85;;;;;;;;;;4953908;29;20059;-76
2024/01/20 01:54:58;;;;;;;14.05;8.07;;;;;;;;;;4954337;29;20047;-76
2024/01/20 01:57:25;;;;;;;15.82;9.05;;;;;;;;;;4954439;29;20504;-76
2024/01/20 01:59:52;;;;;;;15.35;9.25;;;;;;;;;;4954518;29;20059;-76
2024/01/20 02:02:19;;;;;;;17.20;9.00;;;;;;;;;;4954208;29;20070;-76
2024/01/20 02:04:46;;;;;;;15.73;8.40;;;;;;;;;;4954361;28;20401;-76
2024/01/20 02:07:15;;;;;;;13.32;8.63;;;;;;;;;;4954541;28;20059;-76
2024/01/20 02:09:42;;;;;;;14.00;8.48;;;;;;;;;;4953252;28;20424;-76
2024/01/20 02:12:09;;;;;;;15.15;8.45;;;;;;;;;;4954388;28;20055;-76
2024/01/20 02:14:36;;;;;;;12.52;7.95;;;;;;;;;;4954549;28;20047;-76
2024/01/20 02:17:05;;;;;;;15.10;8.23;;;;;;;;;;4955049;28;20063;-76
2024/01/20 02:19:36;;;;;;;17.15;8.43;;;;;;;;;;4958192;29;20058;-76
2024/01/20 02:22:09;;;;;;;12.77;7.85;;;;;;;;;;4958319;28;20059;-76
2024/01/20 02:24:37;;;;;;;14.13;8.30;;;;;;;;;;4957819;29;20501;-75
2024/01/20 02:27:04;;;;;;;14.82;8.45;;;;;;;;;;4958253;29;20539;-75
2024/01/20 02:29:30;;;;;;;13.02;8.25;;;;;;;;;;4957878;29;20059;-76
2024/01/20 02:31:57;;;;;;;17.83;9.30;;;;;;;;;;4958389;28;20066;-76
2024/01/20 02:34:24;;;;;;;14.82;8.10;;;;;;;;;;4958087;29;20389;-76
2024/01/20 02:36:51;;;;;;;13.05;8.30;;;;;;;;;;4958009;28;20062;-75
2024/01/20 02:39:19;;;;;;;15.40;8.32;;;;;;;;;;4957587;29;20074;-75
2024/01/20 02:41:47;;;;;;;12.13;8.23;;;;;;;;;;4957715;28;20055;-75
2024/01/20 02:44:14;;;;;;;13.85;7.85;;;;;;;;;;4957910;29;20412;-75
2024/01/20 02:46:41;;;;;;;16.55;8.82;;;;;;;;;;4957900;29;20051;-75
2024/01/20 02:49:07;;;;;;;17.60;8.68;;;;;;;;;;4957854;28;20074;-76
2024/01/20 02:51:34;;;;;;;17.65;8.07;;;;;;;;;;4974315;28;20471;-76
2024/01/20 02:54:01;;;;;;;16.65;9.05;;;;;;;;;;4957179;29;20051;-75
2024/01/20 02:56:29;;;;;;;12.98;8.38;;;;;;;;;;4957822;29;20058;-76
2024/01/20 02:58:56;;;;;;;13.63;8.13;;;;;;;;;;4956836;29;20054;-76
2024/01/20 03:01:22;;;;;;;14.57;8.82;;;;;;;;;;4957748;28;20055;-76
2024/01/20 03:03:49;;;;;;;13.27;8.38;;;;;;;;;;4957414;28;20062;-76
2024/01/20 03:06:16;;;;;;;11.40;7.75;;;;;;;;;;4957730;29;20051;-76
2024/01/20 03:08:43;;;;;;;13.13;8.40;;;;;;;;;;4956821;29;20062;-75
2024/01/20 03:11:10;;;;;;;16.30;7.78;;;;;;;;;;4956936;29;20059;-77
2024/01/20 03:13:38;;;;;;;13.70;8.25;;;;;;;;;;4957188;28;20062;-75
2024/01/20 03:16:05;;;;;;;11.88;7.30;;;;;;;;;;4956868;29;20385;-75
2024/01/20 03:18:32;;;;;;;13.80;8.80;;;;;;;;;;4957507;29;20408;-76
2024/01/20 03:20:58;;;;;;;12.50;7.90;;;;;;;;;;4956663;28;20122;-75
2024/01/20 03:23:25;;;;;;;12.50;7.97;;;;;;;;;;4956502;29;20051;-75
2024/01/20 03:25:52;;;;;;;10.80;7.53;;;;;;;;;;4957037;29;20062;-76
2024/01/20 03:28:19;;;;;;;13.50;8.13;;;;;;;;;;4956138;28;20408;-76
2024/01/20 03:30:47;;;;;;;14.60;8.10;;;;;;;;;;4956260;29;20062;-76
2024/01/20 03:33:14;;;;;;;12.57;8.23;;;;;;;;;;4957324;29;20059;-76
2024/01/20 03:35:41;;;;;;;12.63;7.55;;;;;;;;;;4956511;28;20058;-75
2024/01/20 03:38:07;;;;;;;12.85;7.38;;;;;;;;;;4956984;29;20055;-75
2024/01/20 03:40:34;;;;;;;14.55;8.65;;;;;;;;;;4956207;28;20055;-75
2024/01/20 03:43:01;;;;;;;13.48;6.90;;;;;;;;;;4956377;29;20051;-75
2024/01/20 03:45:28;;;;;;;12.07;7.88;;;;;;;;;;4956110;28;20051;-75
2024/01/20 03:47:56;;;;;;;14.82;8.88;;;;;;;;;;4956437;29;20066;-75
2024/01/20 03:50:23;;;;;;;14.68;7.75;;;;;;;;;;4966929;28;20456;-75
2024/01/20 03:52:49;;;;;;;11.85;7.45;;;;;;;;;;4976071;28;20082;-75
2024/01/20 03:55:16;;;;;;;14.98;8.10;;;;;;;;;;4960303;28;20062;-76
2024/01/20 03:57:43;;;;;;;12.50;8.90;;;;;;;;;;4955621;28;20062;-75
2024/01/20 04:00:10;;;;;;;12.82;8.50;;;;;;;;;;4956225;29;20055;-75
2024/01/20 04:02:37;;;;;;;12.98;7.43;;;;;;;;;;4956468;29;20062;-76
2024/01/20 04:05:06;;;;;;;12.77;8.13;;;;;;;;;;4955829;29;20051;-76
2024/01/20 04:07:33;;;;;;;14.88;8.15;;;;;;;;;;4956371;29;20063;-75
2024/01/20 04:09:59;;;;;;;11.55;7.68;;;;;;;;;;4955361;28;20054;-75
2024/01/20 04:12:26;;;;;;;13.38;7.35;;;;;;;;;;4956162;29;20055;-75
2024/01/20 04:14:55;;;;;;;14.55;7.82;;;;;;;;;;4955549;29;20047;-75
2024/01/20 04:17:22;;;;;;;12.70;7.82;;;;;;;;;;4956262;29;20051;-75
2024/01/20 04:19:49;;;;;;;12.80;7.40;;;;;;;;;;4956000;29;20063;-76
2024/01/20 04:22:17;;;;;;;10.25;7.10;;;;;;;;;;4968546;28;20063;-76
2024/01/20 04:24:43;;;;;;;12.20;7.30;;;;;;;;;;4975126;28;20059;-76
2024/01/20 04:27:10;;;;;;;13.52;7.97;;;;;;;;;;4975637;28;20365;-76
2024/01/20 04:29:37;;;;;;;15.18;8.35;;;;;;;;;;4975223;28;20051;-76
2024/01/20 04:32:04;;;;;;;13.45;7.90;;;;;;;;;;4975001;28;20431;-76
2024/01/20 04:34:31;;;;;;;12.30;7.75;;;;;;;;;;4975046;28;20062;-76
2024/01/20 04:36:58;;;;;;;11.07;7.63;;;;;;;;;;4975462;28;20051;-76
2024/01/20 04:39:26;;;;;;;13.70;7.65;;;;;;;;;;4962614;28;20055;-75
2024/01/20 04:41:52;;;;;;;12.93;7.65;;;;;;;;;;4955664;28;20062;-76
2024/01/20 04:44:19;;;;;;;13.93;7.80;;;;;;;;;;4956328;28;20082;-75
2024/01/20 04:46:46;;;;;;;13.10;7.85;;;;;;;;;;4955936;28;20404;-75
2024/01/20 04:49:13;;;;;;;11.23;7.70;;;;;;;;;;4957635;28;20416;-75
2024/01/20 04:51:40;;;;;;;14.40;8.05;;;;;;;;;;4994561;28;20050;-75
2024/01/20 04:54:06;;;;;;;14.38;6.80;;;;;;;;;;4981054;28;20059;-75
2024/01/20 04:56:34;;;;;;;14.18;7.88;;;;;;;;;;4974958;28;20058;-75
2024/01/20 04:59:01;;;;;;;12.00;7.10;;;;;;;;;;4974842;28;20404;-75
2024/01/20 05:01:28;;;;;;;13.13;7.28;;;;;;;;;;4973274;28;20400;-76
2024/01/20 05:03:55;;;;;;;11.50;7.13;;;;;;;;;;4973618;28;20511;-75
2024/01/20 05:06:21;;;;;;;13.35;7.60;;;;;;;;;;4974646;28;20055;-75
2024/01/20 05:08:48;;;;;;;11.77;7.35;;;;;;;;;;4970608;28;20055;-76
2024/01/20 05:11:15;;;;;;;11.85;7.03;;;;;;;;;;4955045;28;20059;-76
2024/01/20 05:13:43;;;;;;;10.85;6.93;;;;;;;;;;4955495;28;20124;-75
2024/01/20 05:16:10;;;;;;;13.50;7.15;;;;;;;;;;4955053;29;20047;-75
2024/01/20 05:18:37;;;;;;;10.70;6.63;;;;;;;;;;4961737;28;20488;-76
2024/01/20 05:21:04;;;;;;;16.15;7.18;;;;;;;;;;4977417;28;20058;-75
2024/01/20 05:23:30;;;;;;;12.82;7.22;;;;;;;;;;4980204;28;20051;-75
2024/01/20 05:25:57;;;;;;;12.13;6.97;;;;;;;;;;4955043;29;20499;-77
2024/01/20 05:28:24;;;;;;;13.43;7.78;;;;;;;;;;4955108;29;20055;-75
2024/01/20 05:30:52;;;;;;;11.68;6.85;;;;;;;;;;4954821;29;20059;-75
2024/01/20 05:33:19;;;;;;;10.98;6.72;;;;;;;;;;4955152;28;20051;-75
2024/01/20 05:35:45;;;;;;;11.55;6.70;;;;;;;;;;4955187;29;20055;-75
2024/01/20 05:38:12;;;;;;;10.55;7.10;;;;;;;;;;4956563;28;20511;-75
2024/01/20 05:40:40;;;;;;;11.05;7.22;;;;;;;;;;4974444;28;20488;-76
2024/01/20 05:43:07;;;;;;;15.40;6.85;;;;;;;;;;4970838;28;20055;-76
2024/01/20 05:45:33;;;;;;;12.50;7.28;;;;;;;;;;4954955;28;20051;-75
2024/01/20 05:48:02;;;;;;;11.27;6.93;;;;;;;;;;4954242;29;20051;-76
2024/01/20 05:50:29;;;;;;;13.57;8.40;;;;;;;;;;4976989;28;20065;-76
2024/01/20 05:52:56;;;;;;;12.25;7.85;;;;;;;;;;4989971;28;20058;-76
2024/01/20 05:55:22;;;;;;;12.45;6.97;;;;;;;;;;4973858;28;20066;-76
2024/01/20 05:57:49;;;;;;;12.80;7.53;;;;;;;;;;4973858;28;20066;-76
2024/01/20 06:00:17;;;;;;;10.63;6.80;;;;;;;;;;4973523;28;20057;-76
2024/01/20 06:02:44;;;;;;;12.50;6.97;;;;;;;;;;4973652;28;20050;-75
2024/01/20 06:05:12;;;;;;;14.07;7.15;;;;;;;;;;4973166;28;20062;-75
2024/01/20 06:07:39;;;;;;;13.00;7.20;;;;;;;;;;4973567;28;20055;-76
2024/01/20 06:10:06;;;;;;;12.75;6.97;;;;;;;;;;4972096;28;20081;-76
2024/01/20 06:12:33;;;;;;;11.60;6.80;;;;;;;;;;4973829;28;20402;-76
2024/01/20 06:15:00;;;;;;;10.10;6.90;;;;;;;;;;4956169;28;20416;-76
2024/01/20 06:17:27;;;;;;;11.18;7.15;;;;;;;;;;4954888;29;20062;-76
2024/01/20 06:19:53;;;;;;;14.45;7.00;;;;;;;;;;4954146;29;20055;-75
2024/01/20 06:22:22;;;;;;;14.02;7.47;;;;;;;;;;4953968;28;20055;-76
2024/01/20 06:24:49;;;;;;;11.60;6.68;;;;;;;;;;4969722;28;20055;-76
2024/01/20 06:27:15;;;;;;;12.48;7.40;;;;;;;;;;4973671;28;20078;-76
2024/01/20 06:29:42;;;;;;;10.82;6.38;;;;;;;;;;4973715;28;20408;-75
2024/01/20 06:32:09;;;;;;;12.65;7.53;;;;;;;;;;4973764;28;20066;-76
2024/01/20 06:34:36;;;;;;;11.20;6.82;;;;;;;;;;4973126;28;20427;-76
2024/01/20 06:37:02;;;;;;;12.20;7.07;;;;;;;;;;4973627;28;20054;-76
2024/01/20 06:39:31;;;;;;;12.10;7.20;;;;;;;;;;4962538;28;20055;-76
2024/01/20 06:41:57;;;;;;;11.13;6.88;;;;;;;;;;4954751;28;20055;-75
2024/01/20 06:44:24;;;;;;;12.93;6.68;;;;;;;;;;4955085;28;20078;-76
2024/01/20 06:46:51;;;;;;;12.68;6.97;;;;;;;;;;4954052;29;20054;-76
2024/01/20 06:49:18;;;;;;;11.50;6.60;;;;;;;;;;4964953;28;20050;-75
2024/01/20 06:51:45;;;;;;;11.65;6.30;;;;;;;;;;4993698;28;20444;-77
2024/01/20 06:54:12;;;;;;;13.82;7.20;;;;;;;;;;4982354;28;20105;-76
2024/01/20 06:56:40;;;;;;;12.70;7.00;;;;;;;;;;4973802;28;20055;-76
2024/01/20 06:59:06;;;;;;;13.32;7.32;;;;;;;;;;4973354;28;20062;-76
2024/01/20 07:01:33;;;;;;;15.13;7.25;;;;;;;;;;4973382;28;20050;-76
2024/01/20 07:04:00;;;;;;;14.40;7.30;;;;;;;;;;4975732;28;20380;-76
2024/01/20 07:06:28;;;;;;;13.65;6.22;;;;;;;;;;4977501;28;20139;-76
2024/01/20 07:08:55;;;;;;;12.25;6.75;;;;;;;;;;4975806;28;20420;-75
2024/01/20 07:11:24;;;;;;;12.07;7.10;;;;;;;;;;4977084;28;20054;-75
2024/01/20 07:13:52;;;;;;;11.38;6.60;;;;;;;;;;4976833;28;20054;-75
2024/01/20 07:16:19;;;;;;;11.55;6.45;;;;;;;;;;4977072;28;20078;-76
2024/01/20 07:18:46;;;;;;;10.38;6.82;;;;;;;;;;4976669;28;20043;-75
2024/01/20 07:21:13;;;;;;;13.30;7.15;;;;;;;;;;4976684;28;20078;-76
2024/01/20 07:23:40;;;;;;;11.48;6.97;;;;;;;;;;4975296;28;20074;-75
2024/01/20 07:26:07;;;;;;;11.23;6.68;;;;;;;;;;4977104;28;20581;-75
2024/01/20 07:28:34;;;;;;;9.93;5.95;;;;;;;;;;4974753;28;20058;-76
2024/01/20 07:31:02;;;;;;;10.70;6.82;;;;;;;;;;4965210;28;20051;-75
2024/01/20 07:33:29;;;;;;;15.65;7.03;;;;;;;;;;4976948;28;20054;-75
2024/01/20 07:35:55;;;;;;;11.90;7.18;;;;;;;;;;4957645;28;20058;-75
2024/01/20 07:38:22;;;;;;;10.35;6.57;;;;;;;;;;4957074;29;20073;-75
2024/01/20 07:40:49;;;;;;;12.02;6.15;;;;;;;;;;4973761;28;20059;-75
2024/01/20 07:43:16;;;;;;;10.10;6.30;;;;;;;;;;4976538;28;20059;-75
2024/01/20 07:45:42;;;;;;;12.25;6.90;;;;;;;;;;4977046;28;20059;-75
2024/01/20 07:48:11;;;;;;;10.13;6.72;;;;;;;;;;4964774;28;20054;-75
2024/01/20 07:50:37;;;;;;;10.75;6.63;;;;;;;;;;4976593;28;20472;-75
2024/01/20 07:53:04;;;;;;;11.18;7.20;;;;;;;;;;4976713;28;20051;-75
2024/01/20 07:55:31;;;;;;;11.70;6.90;;;;;;;;;;4975369;28;20408;-75
2024/01/20 07:57:58;;;;;;;11.70;7.32;;;;;;;;;;4976214;28;20043;-75
2024/01/20 08:00:25;;;;;;;10.45;6.60;;;;;;;;;;4975983;28;20054;-75
2024/01/20 08:02:52;;;;;;;8.98;6.05;;;;;;;;;;4976546;28;20055;-75
2024/01/20 08:05:19;;;;;;;10.68;6.93;;;;;;;;;;4972553;28;20054;-75
2024/01/20 08:07:45;;;;;;;11.45;6.38;;;;;;;;;;4975973;28;20051;-75
2024/01/20 08:10:12;;;;;;;11.40;6.80;;;;;;;;;;4974886;28;20055;-76
2024/01/20 08:12:39;;;;;;;11.13;6.78;;;;;;;;;;4969494;28;20408;-74
2024/01/20 08:15:07;;;;;;;10.88;6.85;;;;;;;;;;4963055;28;20058;-75
2024/01/20 08:17:34;;;;;;;10.18;6.05;;;;;;;;;;4968921;28;20155;-75
2024/01/20 08:20:00;;;;;;;9.90;5.80;;;;;;;;;;4960255;28;20485;-76
2024/01/20 08:22:29;;;;;;;10.20;5.72;;;;;;;;;;4971289;28;20085;-75
2024/01/20 08:24:56;;;;;;;9.82;6.38;;;;;;;;;;4970981;28;20050;-76
2024/01/20 08:27:23;;;;;;;10.23;6.40;;;;;;;;;;4973797;28;20066;-75
2024/01/20 08:29:49;;;;;;;9.40;6.03;;;;;;;;;;4975331;28;20051;-75
2024/01/20 08:32:16;;;;;;;10.35;5.68;;;;;;;;;;4972390;28;20055;-76
2024/01/20 08:34:43;;;;;;;9.25;5.68;;;;;;;;;;4973330;28;20412;-75
2024/01/20 08:37:10;;;;;;;7.70;5.15;;;;;;;;;;4967507;28;20495;-76
2024/01/20 08:39:38;;;;;;;7.40;5.45;;;;;;;;;;4968687;28;20493;-76
2024/01/20 08:42:05;;;;;;;7.28;5.13;;;;;;;;;;4973899;28;20054;-77
2024/01/20 08:44:32;;;;;;;7.53;5.38;;;;;;;;;;4965912;28;20131;-75
2024/01/20 08:46:59;;;;;;;8.70;5.38;;;;;;;;;;4973897;28;20054;-75
2024/01/20 08:49:26;;;;;;;6.57;4.82;;;;;;;;;;4974102;28;20051;-75
2024/01/20 08:51:53;;;;;;;7.30;5.30;;;;;;;;;;4973678;28;20050;-75
2024/01/20 08:54:20;;;;;;;6.93;4.93;;;;;;;;;;4965999;28;20057;-75
2024/01/20 08:56:49;;;;;;;8.40;5.05;;;;;;;;;;4968432;28;20050;-76
2024/01/20 08:59:18;;;;;;;6.77;5.10;;;;;;;;;;4974897;28;20054;-76
2024/01/20 09:01:45;;;;;;;8.40;5.78;;;;;;;;;;4974317;28;20065;-76
2024/01/20 09:04:11;;;;;;;9.68;6.00;;;;;;;;;;4956919;28;20070;-80
2024/01/20 09:06:39;;;;;;;7.72;5.68;;;;;;;;;;4965720;28;20062;-83
2024/01/20 09:09:06;;;;;;;8.02;5.68;;;;;;;;;;4973500;28;20047;-82
2024/01/20 09:11:33;;;;;;;6.40;5.07;;;;;;;;;;4974578;28;20061;-83
2024/01/20 09:14:01;;;;;;;7.03;5.68;;;;;;;;;;4968606;28;20055;-83
2024/01/20 09:16:28;;;;;;;7.25;5.40;;;;;;;;;;4961848;28;20480;-82
2024/01/20 09:18:55;;;;;;;7.00;5.03;;;;;;;;;;4972937;28;20055;-82
2024/01/20 09:21:21;;;;;;;6.03;5.13;;;;;;;;;;4968478;28;20059;-83
2024/01/20 09:23:50;;;;;;;6.72;4.90;;;;;;;;;;4974348;28;20113;-83
2024/01/20 09:26:17;;;;;;;7.78;5.03;;;;;;;;;;4974509;28;20050;-80
2024/01/20 09:28:44;;;;;;;6.43;5.30;;;;;;;;;;4974607;28;20054;-79
2024/01/20 09:31:12;;;;;;;6.78;4.85;;;;;;;;;;4973269;28;20054;-82
2024/01/20 09:33:42;;;;;;;7.55;5.88;;;;;;;;;;4974693;28;20054;-81
2024/01/20 09:36:08;;;;;;;8.15;4.95;;;;;;;;;;4974492;28;20473;-77
2024/01/20 09:38:35;;;;;;;6.97;4.82;;;;;;;;;;4971879;28;20055;-76
2024/01/20 09:41:09;;;;;;;6.57;5.10;;;;;;;;;;4973782;28;20051;-76
2024/01/20 09:43:37;;;;;;;7.43;4.70;;;;;;;;;;4972098;28;20066;-76
2024/01/20 09:46:04;;;;;;;7.38;5.43;;;;;;;;;;4976339;28;20437;-76
2024/01/20 09:48:32;;;;;;;8.32;4.78;;;;;;;;;;4967564;28;20047;-77
2024/01/20 09:50:59;;;;;;;5.65;4.55;;;;;;;;;;4961948;28;20057;-77
2024/01/20 09:53:26;;;;;;;5.85;4.80;;;;;;;;;;4967974;28;20050;-77
2024/01/20 09:55:53;;;;;;;7.50;5.38;;;;;;;;;;4962649;28;20078;-77
2024/01/20 09:58:20;;;;;;;5.82;4.85;;;;;;;;;;4969648;28;20054;-76
2024/01/20 10:00:47;;;;;;;6.93;4.60;;;;;;;;;;4971122;28;20506;-77
2024/01/20 10:03:17;;;;;;;7.07;4.75;;;;;;;;;;4968360;28;20058;-78
2024/01/20 10:05:45;;;;;;;6.30;4.63;;;;;;;;;;4967407;28;20058;-77
2024/01/20 10:08:12;;;;;;;7.13;5.05;;;;;;;;;;4965766;28;20419;-77
2024/01/20 10:10:39;;;;;;;5.47;4.65;;;;;;;;;;4968278;28;20054;-77
2024/01/20 10:13:06;;;;;;;5.75;4.72;;;;;;;;;;4968446;28;20485;-77
2024/01/20 10:15:33;;;;;;;8.27;5.38;;;;;;;;;;4967409;28;20062;-77
2024/01/20 10:18:00;;;;;;;6.82;5.40;;;;;;;;;;4964337;28;20063;-76
2024/01/20 10:20:31;;;;;;;7.40;5.40;;;;;;;;;;4962544;28;20055;-77
2024/01/20 10:23:01;;;;;;;7.82;5.20;;;;;;;;;;4964273;28;20397;-77
2024/01/20 10:25:28;;;;;;;6.57;5.45;;;;;;;;;;4966804;28;20070;-76
2024/01/20 10:27:55;;;;;;;6.50;4.95;;;;;;;;;;4961650;28;20059;-76
2024/01/20 10:30:22;;;;;;;7.57;5.43;;;;;;;;;;4969708;28;20480;-76
2024/01/20 10:32:49;;;;;;;8.57;5.38;;;;;;;;;;4971103;28;20058;-76
2024/01/20 10:35:16;;;;;;;8.35;5.38;;;;;;;;;;4972836;28;20389;-76
2024/01/20 10:37:44;;;;;;;7.68;5.13;;;;;;;;;;4967924;28;20050;-76
2024/01/20 10:40:13;;;;;;;6.40;4.65;;;;;;;;;;4975236;28;20058;-76
2024/01/20 10:42:43;;;;;;;7.90;5.28;;;;;;;;;;4973994;28;20514;-77
2024/01/20 10:45:10;;;;;;;6.40;4.63;;;;;;;;;;4977130;28;20067;-77
2024/01/20 10:47:38;;;;;;;9.60;5.18;;;;;;;;;;4960647;28;20055;-77
2024/01/20 10:50:05;;;;;;;6.15;4.45;;;;;;;;;;4969849;28;20051;-78
2024/01/20 10:52:32;;;;;;;6.25;4.68;;;;;;;;;;4976086;28;20050;-77
2024/01/20 10:55:00;;;;;;;5.90;4.20;;;;;;;;;;4976363;28;20078;-77
2024/01/20 10:57:28;;;;;;;5.82;4.47;;;;;;;;;;4977440;28;20066;-77
2024/01/20 10:59:56;;;;;;;6.18;4.45;;;;;;;;;;4977185;28;20058;-77
2024/01/20 11:02:24;;;;;;;5.57;3.60;;;;;;;;;;4971012;28;20074;-77
2024/01/20 11:04:50;;;;;;;5.65;3.85;;;;;;;;;;4975226;28;20055;-75
2024/01/20 11:07:20;;;;;;;7.97;4.07;;;;;;;;;;4975030;28;20055;-75
2024/01/20 11:09:54;;;;;;;4.60;3.60;;;;;;;;;;4966170;28;20049;-75
2024/01/20 11:12:22;;;;;;;4.90;3.72;;;;;;;;;;4971738;28;20050;-76
2024/01/20 11:14:51;;;;;;;5.47;3.97;;;;;;;;;;4972933;28;20059;-76
2024/01/20 11:17:18;;;;;;;4.93;3.75;;;;;;;;;;4969690;28;20080;-75
2024/01/20 11:19:46;;;;;;;5.95;4.03;;;;;;;;;;4971488;28;20047;-75
2024/01/20 11:22:31;;;;;;;4.50;3.67;;;;;;;;;;4975374;28;20070;-75
2024/01/20 11:24:58;;;;;;;5.78;4.00;;;;;;;;;;4965082;28;20493;-75
2024/01/20 11:27:25;;;;;;;5.28;3.63;;;;;;;;;;4973585;28;20412;-76
2024/01/20 11:30:03;;;;;;;5.65;3.90;;;;;;;;;;4976092;28;20047;-75
2024/01/20 11:32:30;;;;;;;6.63;4.53;;;;;;;;;;4956953;29;20055;-75
2024/01/20 11:34:57;;;;;;;4.80;3.78;;;;;;;;;;4956817;28;20055;-76
2024/01/20 11:37:24;;;;;;;4.93;3.58;;;;;;;;;;4956392;29;20058;-75
2024/01/20 11:39:51;;;;;;;5.47;4.60;;;;;;;;;;4960704;28;20051;-75
2024/01/20 11:42:20;;;;;;;5.05;3.75;;;;;;;;;;4957054;29;20062;-75
2024/01/20 11:44:47;;;;;;;4.38;3.50;;;;;;;;;;4956782;29;20055;-75
2024/01/20 11:47:15;;;;;;;4.93;3.30;;;;;;;;;;4993699;28;20065;-75
2024/01/20 11:49:42;;;;;;;4.68;3.72;;;;;;;;;;4986040;28;20167;-75
2024/01/20 11:52:09;;;;;;;8.32;4.68;;;;;;;;;;4976010;28;20055;-75
2024/01/20 11:54:36;;;;;;;5.25;4.07;;;;;;;;;;4974435;28;20055;-75
2024/01/20 11:57:04;;;;;;;5.18;4.10;;;;;;;;;;4975995;28;20054;-76
2024/01/20 11:59:31;;;;;;;5.60;4.30;;;;;;;;;;4975649;28;20069;-75
2024/01/20 12:01:57;;;;;;;6.25;4.70;;;;;;;;;;4968375;28;20047;-76
2024/01/20 12:04:26;;;;;;;5.70;4.40;;;;;;;;;;4959372;28;20055;-76
2024/01/20 12:06:53;;;;;;;7.30;4.07;;;;;;;;;;4976079;28;20062;-76
2024/01/20 12:09:20;;;;;;;6.70;4.22;;;;;;;;;;4973961;28;20054;-75
2024/01/20 12:11:47;;;;;;;5.38;3.83;;;;;;;;;;4973579;28;20499;-75
2024/01/20 12:14:13;;;;;;;5.50;4.30;;;;;;;;;;4975707;28;20054;-76
2024/01/20 12:16:40;;;;;;;5.95;3.92;;;;;;;;;;4975768;28;20055;-76
2024/01/20 12:19:07;;;;;;;5.75;3.72;;;;;;;;;;4975620;28;20047;-75
2024/01/20 12:21:35;;;;;;;5.63;4.30;;;;;;;;;;4982303;28;20062;-75
2024/01/20 12:24:02;;;;;;;6.18;3.90;;;;;;;;;;4977033;28;20415;-75
2024/01/20 12:26:29;;;;;;;5.45;4.00;;;;;;;;;;4974918;28;20054;-76
2024/01/20 12:28:56;;;;;;;5.82;3.80;;;;;;;;;;4975002;28;20082;-74
2024/01/20 12:31:25;;;;;;;4.82;3.85;;;;;;;;;;4974762;28;20065;-75
2024/01/20 12:33:52;;;;;;;5.28;3.65;;;;;;;;;;4975361;28;20069;-75
2024/01/20 12:36:19;;;;;;;6.10;3.80;;;;;;;;;;4975264;28;20081;-75
2024/01/20 12:38:47;;;;;;;6.03;3.85;;;;;;;;;;4974406;28;20055;-75
2024/01/20 12:41:14;;;;;;;4.28;3.58;;;;;;;;;;4975416;28;20404;-75
2024/01/20 12:43:41;;;;;;;4.90;3.42;;;;;;;;;;4974368;28;20055;-74
2024/01/20 12:46:08;;;;;;;5.63;3.63;;;;;;;;;;4974248;28;20050;-74
2024/01/20 12:48:35;;;;;;;5.70;3.65;;;;;;;;;;4974600;28;20142;-75
2024/01/20 12:51:02;;;;;;;4.85;3.65;;;;;;;;;;4974861;28;20412;-76
2024/01/20 12:53:28;;;;;;;4.97;4.28;;;;;;;;;;4974807;28;20058;-76
2024/01/20 12:55:57;;;;;;;7.15;4.40;;;;;;;;;;4973417;28;20055;-76
2024/01/20 12:58:23;;;;;;;6.18;3.88;;;;;;;;;;4974531;28;20050;-76
2024/01/20 13:00:50;;;;;;;5.45;3.80;;;;;;;;;;4974320;28;20392;-76
2024/01/20 13:03:17;;;;;;;4.85;3.78;;;;;;;;;;4968224;28;20477;-76
2024/01/20 13:05:45;;;;;;;5.03;3.67;;;;;;;;;;4968576;28;20057;-76
2024/01/20 13:08:11;;;;;;;6.55;4.10;;;;;;;;;;4969907;28;20504;-76
2024/01/20 13:10:38;;;;;;;5.10;3.78;;;;;;;;;;4973667;28;20062;-76
2024/01/20 13:13:06;;;;;;;5.00;3.90;;;;;;;;;;4974177;28;20062;-76
2024/01/20 13:15:33;;;;;;;4.72;3.53;;;;;;;;;;4974252;28;20058;-76
2024/01/20 13:18:00;;;;;;;5.80;3.92;;;;;;;;;;4965410;28;20051;-76
2024/01/20 13:20:27;;;;;;;5.63;3.95;;;;;;;;;;4968990;28;20054;-76
2024/01/20 13:22:54;;;;;;;6.10;4.10;;;;;;;;;;4991297;28;20526;-76
2024/01/20 13:25:21;;;;;;;5.00;4.10;;;;;;;;;;4973619;28;20057;-76
2024/01/20 13:27:48;;;;;;;5.28;4.10;;;;;;;;;;4974101;28;20058;-76
2024/01/20 13:30:16;;;;;;;5.35;3.88;;;;;;;;;;4961674;28;20055;-76
2024/01/20 13:32:43;;;;;;;5.63;3.50;;;;;;;;;;4965331;28;20515;-76
2024/01/20 13:35:10;;;;;;;5.18;3.70;;;;;;;;;;4973830;28;20405;-76
2024/01/20 13:37:37;;;;;;;5.50;3.80;;;;;;;;;;4973876;28;20061;-76
2024/01/20 13:40:05;;;;;;;5.15;3.38;;;;;;;;;;4972456;28;20050;-76
2024/01/20 13:42:32;;;;;;;4.45;3.63;;;;;;;;;;4971261;28;20062;-77
2024/01/20 13:44:58;;;;;;;5.03;3.83;;;;;;;;;;4971159;28;20058;-76
2024/01/20 13:47:27;;;;;;;4.95;3.20;;;;;;;;;;4954855;29;20051;-76
2024/01/20 13:49:54;;;;;;;5.38;3.70;;;;;;;;;;4954184;29;20138;-76
2024/01/20 13:52:20;;;;;;;5.78;3.78;;;;;;;;;;4954538;29;20054;-76
2024/01/20 13:54:47;;;;;;;5.35;3.45;;;;;;;;;;4966530;28;20527;-76
2024/01/20 13:57:14;;;;;;;6.95;3.63;;;;;;;;;;4973894;28;20062;-76
2024/01/20 13:59:41;;;;;;;4.95;3.55;;;;;;;;;;4973931;28;20058;-75
2024/01/20 14:02:08;;;;;;;7.38;3.63;;;;;;;;;;4974055;28;20060;-76
2024/01/20 14:04:36;;;;;;;5.15;3.40;;;;;;;;;;4972387;28;20055;-76
2024/01/20 14:07:03;;;;;;;4.65;3.15;;;;;;;;;;4972878;28;20055;-76
2024/01/20 14:09:31;;;;;;;4.65;3.30;;;;;;;;;;4968088;28;20074;-76
2024/01/20 14:11:57;;;;;;;4.25;3.17;;;;;;;;;;4966330;28;20039;-77
2024/01/20 14:14:23;;;;;;;4.47;3.28;;;;;;;;;;4969480;28;20053;-77
2024/01/20 14:16:54;;;;;;;4.32;3.33;;;;;;;;;;4965391;28;20047;-76
2024/01/20 14:19:20;;;;;;;5.07;3.17;;;;;;;;;;4969944;28;20070;-76
2024/01/20 14:21:49;;;;;;;5.20;3.17;;;;;;;;;;4969007;28;20063;-76
2024/01/20 14:24:16;;;;;;;5.20;3.42;;;;;;;;;;4962539;28;20077;-76
2024/01/20 14:26:43;;;;;;;6.65;3.50;;;;;;;;;;4973360;28;20054;-76
2024/01/20 14:29:10;;;;;;;4.88;3.28;;;;;;;;;;4972843;28;20062;-77
2024/01/20 14:31:44;;;;;;;4.80;3.22;;;;;;;;;;4971262;28;20051;-78
2024/01/20 14:34:11;;;;;;;5.15;3.47;;;;;;;;;;4973348;28;20054;-76
2024/01/20 14:36:38;;;;;;;5.97;3.72;;;;;;;;;;4972937;28;20058;-77